createdAt,value
2022-10-05T00:00:16.120Z,7.84
2022-10-05T00:03:18.397Z,7.75
2022-10-05T00:06:20.322Z,7.67
2022-10-05T00:09:22.617Z,7.78
2022-10-05T00:12:25.316Z,7.60
2022-10-05T00:15:27.557Z,7.54
2022-10-05T00:18:29.434Z,7.68
2022-10-05T00:21:33.379Z,7.69
2022-10-05T00:24:35.575Z,7.44
2022-10-05T00:27:38.905Z,7.34
2022-10-05T00:30:40.877Z,7.23
2022-10-05T00:33:43.152Z,7.17
2022-10-05T00:36:45.524Z,7.40
2022-10-05T00:39:49.289Z,7.39
2022-10-05T00:43:00.519Z,7.37
2022-10-05T00:46:08.664Z,7.37
2022-10-05T00:49:10.602Z,7.37
2022-10-05T00:52:21.936Z,7.29
2022-10-05T00:55:45.573Z,7.28
2022-10-05T00:58:52.184Z,7.29
2022-10-05T01:01:57.288Z,7.19
2022-10-05T01:05:02.676Z,7.23
2022-10-05T01:08:07.824Z,7.37
2022-10-05T01:11:28.961Z,7.36
2022-10-05T01:14:43.215Z,7.21
2022-10-05T01:18:11.658Z,7.08
2022-10-05T01:21:20.863Z,7.09
2022-10-05T01:24:26.034Z,7.17
2022-10-05T01:27:27.965Z,7.18
2022-10-05T01:30:34.926Z,7.08
2022-10-05T01:33:46.351Z,7.11
2022-10-05T01:36:54.660Z,7.28
2022-10-05T01:39:56.503Z,7.30
2022-10-05T01:43:17.725Z,7.20
2022-10-05T01:46:24.973Z,6.98
2022-10-05T01:49:38.782Z,6.91
2022-10-05T01:52:46.899Z,6.89
2022-10-05T01:55:54.178Z,7.03
2022-10-05T01:59:05.151Z,7.02
2022-10-05T02:02:10.084Z,7.09
2022-10-05T02:05:12.423Z,7.06
2022-10-05T02:08:21.944Z,7.04
2022-10-05T02:11:24.266Z,7.05
2022-10-05T02:14:35.994Z,6.90
2022-10-05T02:17:44.300Z,6.80
2022-10-05T02:20:47.779Z,6.79
2022-10-05T02:23:52.598Z,6.81
2022-10-05T02:26:55.386Z,6.84
2022-10-05T02:30:01.319Z,6.76
2022-10-05T02:33:09.163Z,6.73
2022-10-05T02:36:14.818Z,6.67
2022-10-05T02:39:22.148Z,6.55
2022-10-05T02:42:30.990Z,6.46
2022-10-05T02:45:36.206Z,6.41
2022-10-05T02:48:48.433Z,6.39
2022-10-05T02:51:52.039Z,6.39
2022-10-05T02:55:02.103Z,6.53
2022-10-05T02:58:06.866Z,6.63
2022-10-05T03:01:16.490Z,6.69
2022-10-05T03:04:18.978Z,6.54
2022-10-05T03:07:38.681Z,6.31
2022-10-05T03:10:48.436Z,6.18
2022-10-05T03:14:06.473Z,6.17
2022-10-05T03:17:14.513Z,6.31
2022-10-05T03:20:33.891Z,6.42
2022-10-05T03:23:48.037Z,6.34
2022-10-05T03:27:00.899Z,6.24
2022-10-05T03:30:06.213Z,6.29
2022-10-05T03:33:33.211Z,6.38
2022-10-05T03:36:47.390Z,6.50
2022-10-05T03:40:02.156Z,6.55
2022-10-05T03:43:04.414Z,6.48
2022-10-05T03:46:09.944Z,6.53
2022-10-05T03:49:24.635Z,6.44
2022-10-05T03:52:34.723Z,6.42
2022-10-05T03:55:40.263Z,6.25
2022-10-05T03:58:46.051Z,6.31
2022-10-05T04:01:51.185Z,6.35
2022-10-05T04:05:02.246Z,6.24
2022-10-05T04:08:24.541Z,6.42
2022-10-05T04:11:53.615Z,6.44
2022-10-05T04:15:18.880Z,6.43
2022-10-05T04:18:44.931Z,6.43
2022-10-05T04:21:57.357Z,6.29
2022-10-05T04:25:02.820Z,6.27
2022-10-05T04:28:10.345Z,6.30
2022-10-05T04:31:16.092Z,6.31
2022-10-05T04:34:36.473Z,6.25
2022-10-05T04:37:42.175Z,6.23
2022-10-05T04:41:00.128Z,6.55
2022-10-05T04:44:12.463Z,6.48
2022-10-05T04:47:25.793Z,6.60
2022-10-05T04:50:37.881Z,6.45
2022-10-05T04:53:43.033Z,6.48
2022-10-05T04:56:48.356Z,6.36
2022-10-05T05:00:09.644Z,6.38
2022-10-05T05:03:12.133Z,6.47
2022-10-05T05:06:38.145Z,6.55
2022-10-05T05:09:46.631Z,6.68
2022-10-05T05:13:07.565Z,6.60
2022-10-05T05:16:31.872Z,6.51
2022-10-05T05:19:52.837Z,6.80
2022-10-05T05:23:04.201Z,6.84
2022-10-05T05:26:28.752Z,6.83
2022-10-05T05:29:44.680Z,6.97
2022-10-05T05:32:46.546Z,7.09
2022-10-05T05:36:07.958Z,7.24
2022-10-05T05:39:16.228Z,7.31
2022-10-05T05:42:56.198Z,7.49
2022-10-05T05:46:16.108Z,7.66
2022-10-05T05:49:22.284Z,8.08
2022-10-05T05:52:28.775Z,8.91
2022-10-05T05:55:42.464Z,9.76
2022-10-05T05:58:51.903Z,9.66
2022-10-05T06:02:00.970Z,12.07
2022-10-05T06:05:22.397Z,14.59
2022-10-05T06:08:27.571Z,16.45
2022-10-05T06:11:35.261Z,16.01
2022-10-05T06:14:42.152Z,14.51
2022-10-05T06:17:48.625Z,12.84
2022-10-05T06:20:54.226Z,12.35
2022-10-05T06:23:56.462Z,11.85
2022-10-05T06:26:59.161Z,11.65
2022-10-05T06:30:15.152Z,11.67
2022-10-05T06:33:23.092Z,11.63
2022-10-05T06:36:41.344Z,11.79
2022-10-05T06:40:00.183Z,12.13
2022-10-05T06:43:21.632Z,12.31
2022-10-05T06:46:43.626Z,12.22
2022-10-05T06:49:58.894Z,12.20
2022-10-05T06:53:07.287Z,11.67
2022-10-05T06:56:15.113Z,11.72
2022-10-05T06:59:28.885Z,11.47
2022-10-05T07:02:43.172Z,11.53
2022-10-05T07:05:51.793Z,11.56
2022-10-05T07:08:57.582Z,11.43
2022-10-05T07:12:05.562Z,11.73
2022-10-05T07:15:27.525Z,12.07
2022-10-05T07:18:48.221Z,12.04
2022-10-05T07:22:09.303Z,11.87
2022-10-05T07:25:20.789Z,11.80
2022-10-05T07:28:35.824Z,11.54
2022-10-05T07:32:01.863Z,11.60
2022-10-05T07:35:09.333Z,11.68
2022-10-05T07:38:15.403Z,11.80
2022-10-05T07:41:22.907Z,12.04
2022-10-05T07:44:32.056Z,11.96
2022-10-05T07:47:48.041Z,12.03
2022-10-05T07:50:49.989Z,12.12
2022-10-05T07:53:55.445Z,12.14
2022-10-05T07:57:03.771Z,12.11
2022-10-05T08:00:14.999Z,12.16
2022-10-05T08:03:23.700Z,12.25
2022-10-05T08:10:24.040Z,12.46
2022-10-05T08:13:40.726Z,12.39
2022-10-05T08:16:43.563Z,12.45
2022-10-05T08:20:08.055Z,12.52
2022-10-05T08:23:25.189Z,12.44
2022-10-05T08:26:33.265Z,12.58
2022-10-05T08:29:41.821Z,12.73
2022-10-05T08:32:43.966Z,12.92
2022-10-05T08:35:50.134Z,13.19
2022-10-05T08:38:55.264Z,13.45
2022-10-05T08:42:15.754Z,13.79
2022-10-05T08:45:36.878Z,14.11
2022-10-05T08:48:47.989Z,14.65
2022-10-05T08:52:09.005Z,15.06
2022-10-05T08:55:23.115Z,15.32
2022-10-05T08:58:33.323Z,15.26
2022-10-05T09:01:49.393Z,15.03
2022-10-05T09:05:14.404Z,14.81
2022-10-05T09:08:25.765Z,14.56
2022-10-05T09:12:06.421Z,14.44
2022-10-05T09:15:25.426Z,14.45
2022-10-05T09:18:31.277Z,14.69
2022-10-05T09:21:39.063Z,14.89
2022-10-05T09:24:57.987Z,14.88
2022-10-05T09:28:11.422Z,15.06
2022-10-05T09:31:23.458Z,15.38
2022-10-05T09:34:30.718Z,15.43
2022-10-05T09:37:48.177Z,15.55
2022-10-05T09:40:50.015Z,16.04
2022-10-05T09:43:55.164Z,16.73
2022-10-05T09:47:02.543Z,17.13
2022-10-05T09:50:20.685Z,16.98
2022-10-05T09:53:41.568Z,17.04
2022-10-05T09:57:00.207Z,17.62
2022-10-05T10:03:22.378Z,17.48
2022-10-05T10:06:43.250Z,17.51
2022-10-05T10:09:48.272Z,16.88
2022-10-05T10:13:10.731Z,16.61
2022-10-05T10:16:23.560Z,16.97
2022-10-05T10:19:26.088Z,17.16
2022-10-05T10:22:42.221Z,17.00
2022-10-05T10:25:45.145Z,17.43
2022-10-05T10:28:53.334Z,17.82
2022-10-05T10:31:55.621Z,18.29
2022-10-05T10:35:14.138Z,18.72
2022-10-05T10:38:20.146Z,18.78
2022-10-05T10:41:59.018Z,18.65
2022-10-05T10:45:22.765Z,18.92
2022-10-05T10:48:30.581Z,18.79
2022-10-05T10:51:51.638Z,18.35
2022-10-05T10:54:53.595Z,18.35
2022-10-05T10:57:55.869Z,18.68
2022-10-05T11:00:57.754Z,19.34
2022-10-05T11:04:18.660Z,19.43
2022-10-05T11:07:39.658Z,18.67
2022-10-05T11:11:00.918Z,18.81
2022-10-05T11:14:30.557Z,20.26
2022-10-05T11:17:44.896Z,21.33
2022-10-05T11:21:04.492Z,21.99
2022-10-05T11:24:15.632Z,23.24
2022-10-05T11:27:31.309Z,24.18
2022-10-05T11:31:05.466Z,24.91
2022-10-05T11:34:26.131Z,23.53
2022-10-05T11:41:43.948Z,23.88
2022-10-05T11:45:06.203Z,25.11
2022-10-05T11:48:14.660Z,25.84
2022-10-05T11:51:16.540Z,26.13
2022-10-05T11:54:18.739Z,26.15
2022-10-05T11:57:28.769Z,26.05
2022-10-05T12:00:36.128Z,25.94
2022-10-05T12:03:46.910Z,25.80
2022-10-05T12:06:54.780Z,26.48
2022-10-05T12:10:17.406Z,25.21
2022-10-05T12:13:31.482Z,25.62
2022-10-05T12:16:41.520Z,25.76
2022-10-05T12:19:57.924Z,24.06
2022-10-05T12:23:12.979Z,22.91
2022-10-05T12:26:15.638Z,23.38
2022-10-05T12:29:24.185Z,23.50
2022-10-05T12:32:35.423Z,22.17
2022-10-05T12:35:51.085Z,22.65
2022-10-05T12:38:57.985Z,22.37
2022-10-05T12:42:08.012Z,22.50
2022-10-05T12:45:28.682Z,23.15
2022-10-05T12:48:37.614Z,22.63
2022-10-05T12:51:39.889Z,22.54
2022-10-05T12:54:50.725Z,22.50
2022-10-05T12:58:01.456Z,22.88
2022-10-05T13:01:12.014Z,22.60
2022-10-05T13:04:20.262Z,22.40
2022-10-05T13:07:28.999Z,22.54
2022-10-05T13:10:33.957Z,22.49
2022-10-05T13:13:48.827Z,22.34
2022-10-05T13:16:55.230Z,21.89
2022-10-05T13:20:00.710Z,21.20
2022-10-05T13:23:05.667Z,20.58
2022-10-05T13:26:11.437Z,21.04
2022-10-05T13:29:22.520Z,21.29
2022-10-05T13:32:44.989Z,21.21
2022-10-05T13:35:57.776Z,21.67
2022-10-05T13:39:03.840Z,21.93
2022-10-05T13:42:09.862Z,21.97
2022-10-05T13:45:15.124Z,21.98
2022-10-05T13:48:27.088Z,21.40
2022-10-05T13:51:34.494Z,21.24
2022-10-05T13:54:40.983Z,20.67
2022-10-05T13:57:51.529Z,20.13
2022-10-05T14:00:54.872Z,19.78
2022-10-05T14:04:24.552Z,19.75
2022-10-05T14:07:48.157Z,19.67
2022-10-05T14:10:50.304Z,19.36
2022-10-05T14:13:53.088Z,19.40
2022-10-05T14:16:56.822Z,19.26
2022-10-05T14:20:00.272Z,19.15
2022-10-05T14:23:17.293Z,19.03
2022-10-05T14:26:32.634Z,19.20
2022-10-05T14:29:35.801Z,19.04
2022-10-05T14:33:03.957Z,18.74
2022-10-05T14:36:20.333Z,18.79
2022-10-05T14:39:26.832Z,18.53
2022-10-05T14:42:30.443Z,18.40
2022-10-05T14:45:33.754Z,18.39
2022-10-05T14:48:43.321Z,18.41
2022-10-05T14:52:07.121Z,18.36
2022-10-05T14:59:46.636Z,17.85
2022-10-05T15:03:35.582Z,17.79
2022-10-05T15:06:46.929Z,17.73
2022-10-05T15:09:49.281Z,17.70
2022-10-05T15:12:51.914Z,17.33
2022-10-05T15:15:56.503Z,17.11
2022-10-05T15:19:16.017Z,17.09
2022-10-05T15:22:39.483Z,17.04
2022-10-05T15:25:46.171Z,16.85
2022-10-05T15:29:14.981Z,16.75
2022-10-05T15:32:32.412Z,16.69
2022-10-05T15:35:48.011Z,16.52
2022-10-05T15:39:08.869Z,16.51
2022-10-05T15:42:12.901Z,16.39
2022-10-05T15:45:14.841Z,16.22
2022-10-05T15:48:20.531Z,16.08
2022-10-05T15:51:30.647Z,16.10
2022-10-05T15:54:53.335Z,15.85
2022-10-05T15:58:19.007Z,15.71
2022-10-05T16:01:43.935Z,15.55
2022-10-05T16:05:03.917Z,15.44
2022-10-05T16:08:30.737Z,15.30
2022-10-05T16:11:51.626Z,15.18
2022-10-05T16:15:15.785Z,15.09
2022-10-05T16:18:24.166Z,15.06
2022-10-05T16:21:30.040Z,15.07
2022-10-05T16:24:51.590Z,14.85
2022-10-05T16:28:05.754Z,14.80
2022-10-05T16:31:12.296Z,14.71
2022-10-05T16:34:17.174Z,14.77
2022-10-05T16:37:28.500Z,14.64
2022-10-05T16:40:44.299Z,14.58
2022-10-05T16:43:52.680Z,14.51
2022-10-05T16:46:54.643Z,14.37
2022-10-05T16:49:56.861Z,14.23
2022-10-05T16:53:01.958Z,14.19
2022-10-05T16:56:08.589Z,14.10
2022-10-05T16:59:32.023Z,14.03
2022-10-05T17:02:46.450Z,14.09
2022-10-05T17:06:00.722Z,13.94
2022-10-05T17:09:12.247Z,13.93
2022-10-05T17:12:14.144Z,13.87
2022-10-05T17:15:32.920Z,13.88
2022-10-05T17:18:50.107Z,13.76
2022-10-05T17:21:55.167Z,13.67
2022-10-05T17:25:06.248Z,13.65
2022-10-05T17:28:27.751Z,13.58
2022-10-05T17:31:31.209Z,13.51
2022-10-05T17:34:36.964Z,13.50
2022-10-05T17:37:40.378Z,13.49
2022-10-05T17:41:06.198Z,13.42
2022-10-05T17:44:19.065Z,13.39
2022-10-05T17:47:45.343Z,13.37
2022-10-05T17:51:08.042Z,13.35
2022-10-05T17:54:42.632Z,13.29
2022-10-05T17:57:44.682Z,13.13
2022-10-05T18:01:13.436Z,13.12
2022-10-05T18:04:24.708Z,13.13
2022-10-05T18:07:27.326Z,13.01
2022-10-05T18:10:29.840Z,12.91
2022-10-05T18:13:35.117Z,12.84
2022-10-05T18:16:56.489Z,12.77
2022-10-05T18:20:27.616Z,12.75
2022-10-05T18:23:35.483Z,12.81
2022-10-05T18:26:45.277Z,12.70
2022-10-05T18:30:03.308Z,12.67
2022-10-05T18:33:11.200Z,12.62
2022-10-05T18:36:27.870Z,12.63
2022-10-05T18:39:39.309Z,12.62
2022-10-05T18:42:51.657Z,12.54
2022-10-05T18:45:57.678Z,12.53
2022-10-05T18:49:18.834Z,12.47
2022-10-05T18:52:20.672Z,12.54
2022-10-05T18:55:33.543Z,12.45
2022-10-05T18:58:41.562Z,12.34
2022-10-05T19:01:53.911Z,12.32
2022-10-05T19:05:02.112Z,12.25
2022-10-05T19:08:22.728Z,12.18
2022-10-05T19:11:27.767Z,12.24
2022-10-05T19:14:39.306Z,12.34
2022-10-05T19:17:46.997Z,12.23
2022-10-05T19:20:55.315Z,12.18
2022-10-05T19:24:15.726Z,12.18
2022-10-05T19:27:36.527Z,12.13
2022-10-05T19:30:44.427Z,12.09
2022-10-05T19:34:02.726Z,11.91
2022-10-05T19:37:14.589Z,11.81
2022-10-05T19:40:35.113Z,11.71
2022-10-05T19:43:40.076Z,11.60
2022-10-05T19:47:01.412Z,11.57
2022-10-05T19:50:23.656Z,11.50
2022-10-05T19:53:43.137Z,11.51
2022-10-05T19:56:49.999Z,11.46
2022-10-05T19:59:56.425Z,11.44
2022-10-05T20:03:14.649Z,11.37
2022-10-05T20:06:18.845Z,11.28
2022-10-05T20:09:21.281Z,11.36
2022-10-05T20:12:43.407Z,11.25
2022-10-05T20:16:23.707Z,11.41
2022-10-05T20:19:47.819Z,11.36
2022-10-05T20:22:49.713Z,11.31
2022-10-05T20:26:12.682Z,11.17
2022-10-05T20:29:14.599Z,11.13
2022-10-05T20:32:18.222Z,11.12
2022-10-05T20:35:23.729Z,11.09
2022-10-05T20:38:26.355Z,11.30
2022-10-05T20:41:28.563Z,11.30
2022-10-05T20:44:30.871Z,11.27
2022-10-05T20:47:33.726Z,11.21
2022-10-05T20:50:37.287Z,11.09
2022-10-05T20:53:39.191Z,10.98
2022-10-05T20:56:41.963Z,10.94
2022-10-05T20:59:43.947Z,10.95
2022-10-05T21:02:46.906Z,11.05
2022-10-05T21:05:48.792Z,11.02
2022-10-05T21:08:51.374Z,10.84
2022-10-05T21:11:54.490Z,10.86
2022-10-05T21:14:56.663Z,10.76
2022-10-05T21:17:58.541Z,10.77
2022-10-05T21:21:02.356Z,10.75
2022-10-05T21:24:04.826Z,10.78
2022-10-05T21:27:07.759Z,10.70
2022-10-05T21:30:09.882Z,10.61
2022-10-05T21:33:12.058Z,10.58
2022-10-05T21:36:14.643Z,10.55
2022-10-05T21:39:16.913Z,10.53
2022-10-05T21:42:18.755Z,10.47
2022-10-05T21:45:20.915Z,10.48
2022-10-05T21:48:23.201Z,10.51
2022-10-05T21:51:26.159Z,10.49
2022-10-05T21:54:28.566Z,10.42
2022-10-05T21:57:31.085Z,10.49
2022-10-05T22:00:33.033Z,10.39
2022-10-05T22:03:35.322Z,10.28
2022-10-05T22:06:37.303Z,10.46
2022-10-05T22:09:39.483Z,10.39
2022-10-05T22:12:46.759Z,10.39
2022-10-05T22:15:49.069Z,10.42
2022-10-05T22:18:51.694Z,10.30
2022-10-05T22:21:53.850Z,10.19
2022-10-05T22:24:55.779Z,10.06
2022-10-05T22:27:58.065Z,10.14
2022-10-05T22:31:01.724Z,10.32
2022-10-05T22:34:03.879Z,10.41
2022-10-05T22:37:06.385Z,10.34
2022-10-05T22:40:09.037Z,10.28
2022-10-05T22:43:11.947Z,10.24
2022-10-05T22:46:14.255Z,10.06
2022-10-05T22:49:16.158Z,9.98
2022-10-05T22:52:18.356Z,9.91
2022-10-05T22:55:20.333Z,9.87
2022-10-05T22:58:22.555Z,9.87
2022-10-05T23:01:24.517Z,10.11
2022-10-05T23:04:26.904Z,10.22
2022-10-05T23:07:28.796Z,10.31
2022-10-05T23:10:32.151Z,10.32
2022-10-05T23:13:34.075Z,10.17
2022-10-05T23:16:36.350Z,10.19
2022-10-05T23:19:38.324Z,10.35
2022-10-05T23:22:40.486Z,10.38
2022-10-05T23:25:42.420Z,10.42
2022-10-05T23:28:46.582Z,10.49
2022-10-05T23:31:48.547Z,10.47
2022-10-05T23:34:50.743Z,10.43
2022-10-05T23:37:52.614Z,10.33
2022-10-05T23:40:56.017Z,10.14
2022-10-05T23:43:57.960Z,10.06
2022-10-05T23:47:00.188Z,10.07
2022-10-05T23:50:02.502Z,10.23
2022-10-05T23:53:04.986Z,10.28
2022-10-05T23:56:06.963Z,10.37
2022-10-05T23:59:09.174Z,10.40
